createdAt,value
2019-04-19T00:01:28.775Z,14.90
2019-04-19T00:04:06.935Z,18.87
2019-04-19T00:06:39.157Z,12.50
2019-04-19T00:09:24.659Z,15.40
2019-04-19T00:11:44.207Z,10.97
2019-04-19T00:14:08.570Z,15.07
2019-04-19T00:16:38.438Z,25.40
2019-04-19T00:19:38.525Z,14.60
2019-04-19T00:22:04.774Z,12.23
2019-04-19T00:24:07.994Z,18.20
2019-04-19T00:26:37.878Z,15.50
2019-04-19T00:29:16.236Z,15.70
2019-04-19T00:31:47.223Z,12.43
2019-04-19T00:34:08.369Z,20.20
2019-04-19T00:36:38.292Z,15.93
2019-04-19T00:39:35.646Z,16.43
2019-04-19T00:42:22.219Z,17.20
2019-04-19T00:44:56.774Z,19.07
2019-04-19T00:47:23.255Z,13.83
2019-04-19T00:49:55.405Z,14.80
2019-04-19T00:52:23.463Z,18.13
2019-04-19T00:54:52.876Z,24.43
2019-04-19T00:57:20.443Z,14.17
2019-04-19T00:59:45.274Z,16.23
2019-04-19T01:02:16.660Z,14.70
2019-04-19T01:04:41.354Z,18.53
2019-04-19T01:07:18.730Z,13.73
2019-04-19T01:09:49.908Z,19.63
2019-04-19T01:12:22.724Z,12.87
2019-04-19T01:14:50.853Z,13.97
2019-04-19T01:17:25.563Z,12.60
2019-04-19T01:19:48.936Z,15.80
2019-04-19T01:22:18.284Z,13.63
2019-04-19T01:24:47.605Z,14.43
2019-04-19T01:27:19.584Z,17.80
2019-04-19T01:29:48.890Z,18.20
2019-04-19T01:32:18.274Z,15.53
2019-04-19T01:34:46.733Z,14.97
2019-04-19T01:37:20.636Z,15.77
2019-04-19T01:40:05.828Z,12.17
2019-04-19T01:42:36.816Z,20.30
2019-04-19T01:45:22.225Z,13.83
2019-04-19T01:47:59.971Z,16.30
2019-04-19T01:50:50.777Z,17.70
2019-04-19T01:53:22.865Z,12.80
2019-04-19T01:55:37.216Z,16.90
2019-04-19T01:58:08.264Z,12.10
2019-04-19T02:00:39.734Z,18.90
2019-04-19T02:03:07.568Z,19.73
2019-04-19T02:05:36.140Z,17.10
2019-04-19T02:08:09.424Z,14.10
2019-04-19T02:11:26.894Z,17.60
2019-04-19T02:13:52.127Z,18.90
2019-04-19T02:16:17.994Z,21.40
2019-04-19T02:18:41.618Z,25.27
2019-04-19T02:21:12.940Z,17.83
2019-04-19T02:23:45.475Z,14.47
2019-04-19T02:26:14.628Z,21.37
2019-04-19T02:28:42.995Z,13.80
2019-04-19T02:31:40.287Z,15.30
2019-04-19T02:34:19.182Z,22.87
2019-04-19T02:36:47.537Z,17.37
2019-04-19T02:39:14.142Z,13.90
2019-04-19T02:41:38.707Z,14.43
2019-04-19T02:51:44.968Z,15.40
2019-04-19T02:54:22.694Z,12.90
2019-04-19T03:02:32.269Z,15.57
2019-04-19T03:07:01.110Z,14.87
2019-04-19T03:09:32.837Z,17.10
2019-04-19T03:12:12.577Z,14.63
2019-04-19T03:14:46.496Z,16.97
2019-04-19T03:17:19.073Z,20.70
2019-04-19T03:19:44.220Z,18.50
2019-04-19T03:22:16.410Z,18.07
2019-04-19T03:24:47.857Z,19.53
2019-04-19T03:27:09.609Z,20.90
2019-04-19T03:29:35.201Z,33.23
2019-04-19T03:32:44.856Z,17.33
2019-04-19T03:34:57.384Z,21.20
2019-04-19T03:37:21.240Z,27.50
2019-04-19T03:40:00.696Z,16.73
2019-04-19T03:42:34.888Z,21.03
2019-04-19T03:45:01.681Z,19.90
2019-04-19T03:47:37.750Z,16.90
2019-04-19T03:50:03.060Z,19.57
2019-04-19T03:52:33.341Z,20.90
2019-04-19T03:55:04.787Z,19.37
2019-04-19T03:57:27.300Z,16.67
2019-04-19T03:59:45.866Z,23.90
2019-04-19T04:02:20.079Z,16.97
2019-04-19T04:04:53.717Z,20.60
2019-04-19T04:07:21.893Z,21.87
2019-04-19T04:09:57.320Z,19.87
2019-04-19T04:12:44.262Z,19.17
2019-04-19T04:15:40.501Z,21.03
2019-04-19T04:17:58.182Z,24.90
2019-04-19T04:20:30.645Z,23.60
2019-04-19T04:23:03.526Z,20.70
2019-04-19T04:25:41.249Z,15.43
2019-04-19T04:28:08.977Z,21.10
2019-04-19T04:30:37.958Z,17.97
2019-04-19T04:33:10.406Z,21.00
2019-04-19T04:35:49.462Z,23.90
2019-04-19T04:38:13.719Z,15.87
2019-04-19T04:40:32.136Z,21.43
2019-04-19T04:43:15.069Z,20.40
2019-04-19T04:46:05.255Z,20.37
2019-04-19T04:48:32.414Z,15.97
2019-04-19T04:51:15.379Z,20.97
2019-04-19T04:53:44.812Z,25.10
2019-04-19T04:56:17.418Z,17.20
2019-04-19T04:58:47.818Z,22.80
2019-04-19T05:01:29.140Z,28.73
2019-04-19T05:04:04.467Z,34.57
2019-04-19T05:06:34.378Z,17.20
2019-04-19T05:09:04.560Z,16.30
2019-04-19T05:11:33.994Z,17.80
2019-04-19T05:14:08.190Z,26.13
2019-04-19T05:19:08.153Z,30.33
2019-04-19T05:21:36.340Z,16.10
2019-04-19T05:24:09.326Z,22.30
2019-04-19T05:29:06.300Z,20.40
2019-04-19T05:31:31.170Z,20.10
2019-04-19T05:34:19.271Z,32.50
2019-04-19T05:36:43.668Z,18.20
2019-04-19T05:39:19.983Z,24.70
2019-04-19T05:41:59.826Z,19.50
2019-04-19T05:45:09.285Z,21.17
2019-04-19T05:47:22.725Z,20.30
2019-04-19T05:49:52.392Z,22.03
2019-04-19T05:52:24.274Z,21.50
2019-04-19T05:54:34.753Z,20.77
2019-04-19T05:57:25.657Z,21.77
2019-04-19T05:59:44.595Z,21.23
2019-04-19T06:02:16.807Z,22.60
2019-04-19T06:05:01.389Z,22.10
2019-04-19T06:07:24.534Z,33.10
2019-04-19T06:09:36.763Z,31.33
2019-04-19T06:12:14.606Z,27.57
2019-04-19T06:15:01.109Z,27.93
2019-04-19T06:17:36.798Z,25.70
2019-04-19T06:20:13.931Z,28.33
2019-04-19T06:22:39.459Z,24.23
2019-04-19T06:25:08.542Z,22.57
2019-04-19T06:27:55.393Z,31.23
2019-04-19T06:30:16.131Z,24.27
2019-04-19T06:32:46.115Z,27.77
2019-04-19T06:35:05.383Z,22.37
2019-04-19T06:37:27.625Z,22.93
2019-04-19T06:40:04.912Z,23.63
2019-04-19T06:42:36.036Z,20.70
2019-04-19T06:45:13.448Z,20.77
2019-04-19T06:47:33.739Z,21.97
2019-04-19T06:49:57.360Z,27.73
2019-04-19T06:52:31.391Z,25.70
2019-04-19T06:54:57.887Z,23.33
2019-04-19T06:57:32.589Z,27.40
2019-04-19T07:00:11.578Z,24.87
2019-04-19T07:02:28.370Z,26.43
2019-04-19T07:05:17.607Z,21.87
2019-04-19T07:07:50.744Z,26.90
2019-04-19T07:10:30.415Z,33.70
2019-04-19T07:12:50.459Z,29.03
2019-04-19T07:15:30.123Z,29.73
2019-04-19T07:17:46.176Z,23.60
2019-04-19T07:20:16.726Z,26.77
2019-04-19T07:22:48.364Z,27.63
2019-04-19T07:25:25.767Z,32.40
2019-04-19T07:27:44.278Z,25.00
2019-04-19T07:30:03.886Z,30.77
2019-04-19T07:32:39.126Z,29.67
2019-04-19T07:35:15.684Z,23.97
2019-04-19T07:37:47.360Z,29.23
2019-04-19T07:40:26.966Z,36.50
2019-04-19T07:42:51.306Z,26.53
2019-04-19T07:45:24.024Z,30.20
2019-04-19T07:47:57.521Z,32.43
2019-04-19T07:50:24.836Z,24.17
2019-04-19T07:52:55.435Z,27.17
2019-04-19T07:55:20.742Z,25.57
2019-04-19T07:58:24.969Z,27.13
2019-04-19T08:01:00.749Z,27.40
2019-04-19T08:03:25.959Z,34.00
2019-04-19T08:08:32.541Z,30.13
2019-04-19T08:13:31.594Z,28.47
2019-04-19T08:15:55.007Z,29.17
2019-04-19T08:28:10.560Z,29.40
2019-04-19T08:30:34.805Z,29.70
2019-04-19T08:32:57.611Z,35.50
2019-04-19T08:35:27.570Z,29.73
2019-04-19T08:38:03.393Z,28.90
2019-04-19T08:40:43.255Z,37.20
2019-04-19T08:43:17.347Z,29.50
2019-04-19T08:45:36.344Z,28.77
2019-04-19T08:48:34.794Z,27.40
2019-04-19T08:50:58.469Z,28.57
2019-04-19T08:53:43.993Z,30.83
2019-04-19T08:56:11.729Z,27.40
2019-04-19T08:58:47.992Z,33.87
2019-04-19T09:01:20.928Z,32.77
2019-04-19T09:03:54.166Z,29.37
2019-04-19T09:06:56.577Z,23.47
2019-04-19T09:08:47.550Z,31.47
2019-04-19T09:11:16.648Z,28.73
2019-04-19T09:13:52.183Z,26.17
2019-04-19T09:16:23.260Z,25.97
2019-04-19T09:18:59.518Z,37.33
2019-04-19T09:21:18.157Z,35.23
2019-04-19T09:23:42.455Z,33.87
2019-04-19T09:26:23.514Z,32.40
2019-04-19T09:28:57.656Z,34.23
2019-04-19T09:31:25.364Z,32.30
2019-04-19T09:33:40.681Z,35.80
2019-04-19T09:36:12.047Z,34.50
2019-04-19T09:38:55.538Z,31.93
2019-04-19T09:41:19.378Z,33.87
2019-04-19T09:43:52.211Z,31.43
2019-04-19T09:46:10.299Z,29.17
2019-04-19T09:48:55.406Z,31.13
2019-04-19T09:51:29.063Z,29.50
2019-04-19T09:54:11.409Z,32.93
2019-04-19T09:56:31.157Z,35.10
2019-04-19T09:58:53.985Z,33.63
2019-04-19T10:01:14.579Z,33.13
2019-04-19T10:03:49.339Z,34.60
2019-04-19T10:06:15.150Z,28.90
2019-04-19T10:08:43.893Z,29.13
2019-04-19T10:11:12.838Z,34.30
2019-04-19T10:13:42.076Z,36.80
2019-04-19T10:16:24.443Z,35.10
2019-04-19T10:18:59.295Z,30.10
2019-04-19T10:21:49.439Z,31.27
2019-04-19T10:24:20.968Z,37.27
2019-04-19T10:26:56.809Z,42.47
2019-04-19T10:29:31.861Z,34.73
2019-04-19T10:32:00.007Z,33.43
2019-04-19T10:34:28.711Z,30.90
2019-04-19T10:36:59.941Z,36.73
2019-04-19T10:39:29.801Z,34.93
2019-04-19T10:41:58.746Z,32.53
2019-04-19T10:44:27.414Z,37.20
2019-04-19T10:46:56.665Z,27.70
2019-04-19T10:49:34.307Z,24.10
2019-04-19T10:52:04.882Z,30.70
2019-04-19T10:54:33.625Z,31.33
2019-04-19T10:57:33.669Z,24.10
2019-04-19T11:00:03.629Z,25.03
2019-04-19T11:02:34.464Z,26.13
2019-04-19T11:05:05.230Z,26.83
2019-04-19T11:07:35.245Z,37.73
2019-04-19T11:10:04.894Z,23.97
2019-04-19T11:12:34.337Z,25.83
2019-04-19T11:15:04.432Z,30.50
2019-04-19T11:17:33.817Z,31.20
2019-04-19T11:20:17.017Z,24.87
2019-04-19T11:22:32.937Z,27.70
2019-04-19T11:25:02.046Z,28.27
2019-04-19T11:27:31.138Z,29.73
2019-04-19T11:30:03.348Z,23.70
2019-04-19T11:32:57.201Z,24.93
2019-04-19T11:35:28.041Z,26.80
2019-04-19T11:37:57.218Z,22.73
2019-04-19T11:40:27.124Z,19.70
2019-04-19T11:42:55.864Z,25.00
2019-04-19T11:45:25.930Z,19.00
2019-04-19T11:47:55.400Z,23.73
2019-04-19T11:50:25.151Z,15.67
2019-04-19T11:53:14.297Z,26.47
2019-04-19T11:55:46.531Z,23.70
2019-04-19T11:58:16.752Z,20.73
2019-04-19T12:01:12.079Z,20.90
2019-04-19T12:03:43.506Z,16.73
2019-04-19T12:06:12.156Z,22.07
2019-04-19T12:08:42.763Z,22.30
2019-04-19T12:11:12.635Z,18.63
2019-04-19T12:13:41.470Z,14.57
2019-04-19T12:16:10.875Z,14.50
2019-04-19T12:18:41.718Z,20.63
2019-04-19T12:21:11.277Z,18.33
2019-04-19T12:23:41.089Z,16.60
2019-04-19T12:26:09.866Z,13.67
2019-04-19T12:28:39.682Z,16.00
2019-04-19T12:31:09.446Z,13.80
2019-04-19T12:33:39.465Z,17.90
2019-04-19T12:36:08.526Z,13.50
2019-04-19T12:38:37.899Z,18.40
2019-04-19T12:41:07.976Z,14.90
2019-04-19T12:43:38.010Z,19.03
2019-04-19T12:46:07.351Z,11.57
2019-04-19T12:48:37.489Z,14.10
2019-04-19T12:51:07.829Z,14.83
2019-04-19T12:53:37.000Z,16.83
2019-04-19T12:56:06.267Z,12.13
2019-04-19T12:58:35.804Z,18.30
2019-04-19T13:01:14.220Z,24.50
2019-04-19T13:03:54.765Z,16.63
2019-04-19T13:06:27.253Z,16.10
2019-04-19T13:08:57.078Z,14.90
2019-04-19T13:11:27.107Z,22.93
2019-04-19T13:13:57.544Z,16.57
2019-04-19T13:16:26.333Z,13.53
2019-04-19T13:18:56.206Z,13.83
2019-04-19T13:21:26.231Z,11.37
2019-04-19T13:23:56.004Z,13.33
2019-04-19T13:26:25.254Z,19.17
2019-04-19T13:28:53.957Z,13.50
2019-04-19T13:31:23.136Z,17.20
2019-04-19T13:33:53.147Z,16.17
2019-04-19T13:36:35.821Z,15.93
2019-04-19T13:39:25.820Z,10.90
2019-04-19T13:41:58.954Z,14.07
2019-04-19T13:44:29.105Z,12.43
2019-04-19T13:46:58.856Z,19.00
2019-04-19T13:49:28.590Z,12.13
2019-04-19T13:51:58.647Z,13.87
2019-04-19T13:54:27.508Z,17.50
2019-04-19T13:56:57.568Z,12.13
2019-04-19T13:59:41.045Z,10.53
2019-04-19T14:01:56.739Z,14.63
2019-04-19T14:04:25.857Z,10.57
2019-04-19T14:06:54.564Z,10.63
2019-04-19T14:09:23.315Z,10.70
2019-04-19T14:11:53.237Z,13.90
2019-04-19T14:14:23.205Z,19.67
2019-04-19T14:16:51.987Z,14.73
2019-04-19T14:19:20.677Z,16.33
2019-04-19T14:21:49.304Z,15.97
2019-04-19T14:24:17.964Z,12.73
2019-04-19T14:26:51.754Z,19.10
2019-04-19T14:29:17.208Z,15.63
2019-04-19T14:31:46.377Z,17.93
